Aérodrome :
LOGIN :

S'inscrire | Disclaimer

   EN    FR    IT 

 










Légende :    VFR   VFR Marginal   IFR   IFR Intensif   IFR Très Intensif
Visi : 
Plafond : 
>= 8 km
>= 3000ft
5 à 8 km
1000 à 3000 ft
1500m à 5 km
500 à 1000 ft
800 à 1500m
200 à 500 ft
< 800m
< 200 ft
Symboles :   Orages  Brouillard  Fortes neiges  Fortes précipitations  Vent > 20 kt
SIGMETs :   Divers  Orages  Givrage  Turbulence  Onde Orograph.  Cendres Volcan.






- Altitude de l'aérodrome : 17 ft
- Code IATA : GRQ


EHGG - Groningen Eelde

DERNIER METAR :
  • 031725Z AUTO 32011KT 280V350 9999 FEW032 SCT043 BKN047 07/01 Q1017 NOSIG

METARs EXPIRÉS :
  • 031655Z AUTO 32006KT 290V010 9999 SCT035 BKN039 OVC044 07/02 Q1017 NOSIG
  • 031625Z AUTO 31010KT 280V340 9999 FEW036 SCT045 08/00 Q1017 NOSIG
  • 031555Z AUTO 29008KT 260V320 9999 OVC039 08/M00 Q1016 NOSIG
  • 031525Z AUTO 29005KT 230V360 9999 FEW038 SCT047 08/M00 Q1016 NOSIG
  • 031455Z AUTO 30006KT 270V330 9999 SCT038 OVC043 07/00 Q1016 NOSIG

TAF TAF EHGG
Valide du 03 à 18h jusqu'au 05 à 00h UTC


031654Z 0318/0424 24006KT CAVOK
BECMG 0407/0410 20010KT
BECMG 0415/0418 14005KT



MET'MAP, la Météo Aéronautique d'un coup d'oeil ! - Copyright ORBIFLY Décembre 2007 - Disclaimer

ORBIFLY MET'MAP TEAM :

Programmation & Développement : Alexandra Zaïnal
Sur une idée originale de : Baudouin d'Aumeries
Assistance à la programmation : Marc-Olivier Méhu
Soutien technique & logistique : Manuel Goepfert

Contact : metmap@orbifly.com




SOURCES & CREDITS :

   NOAA